Massanutten, Virginia
Current Conditions -  °F | °C
As of 6:15 PM on Friday 19 Dec 2014 (Local Time) from KSHD Reporting Station
Clear Clear  
Wind Chill: 26°   Ceiling: Unl
Heat Index: 31°   Visibility: 10mi
Dew Point: 22°   Wind: 6mph
Humidity: 69%   Direction: 20°NNE
Pressure: 30.2"   Gusts: NA
Location:  38.3726°N, 78.7456°W
Report Text: KSHD 192315Z AUTO 02005KT 10SM CLR 00/M05 A3020 RMK AO2 T10041055
Loading
Personal Weather Stations






























Interactive Weather Map New forecast layout! Learn more

10-Day Weather Forecast

Advertisements
Track Severe Weather on mobile